createdAt,value
2023-03-21T00:00:29.519Z,66.51
2023-03-21T00:02:55.985Z,66.50
2023-03-21T00:05:22.758Z,65.70
2023-03-21T00:07:49.329Z,67.46
2023-03-21T00:10:23.981Z,67.70
2023-03-21T00:12:58.464Z,67.38
2023-03-21T00:15:39.291Z,68.01
2023-03-21T00:18:11.870Z,68.07
2023-03-21T00:20:38.932Z,67.63
2023-03-21T00:23:05.680Z,67.86
2023-03-21T00:25:33.019Z,67.83
2023-03-21T00:28:07.777Z,67.06
2023-03-21T00:30:35.379Z,66.96
2023-03-21T00:33:08.959Z,67.50
2023-03-21T00:36:05.795Z,67.67
2023-03-21T00:38:34.169Z,68.62
2023-03-21T00:41:04.660Z,68.58
2023-03-21T00:43:31.300Z,68.46
2023-03-21T00:45:58.913Z,68.89
2023-03-21T00:48:26.924Z,69.34
2023-03-21T00:50:55.532Z,68.45
2023-03-21T00:53:21.955Z,68.68
2023-03-21T00:55:48.841Z,68.34
2023-03-21T00:58:16.274Z,68.71
2023-03-21T01:00:44.375Z,68.82
2023-03-21T01:03:23.571Z,69.05
2023-03-21T01:06:07.000Z,68.88
2023-03-21T01:08:55.007Z,69.48
2023-03-21T01:11:24.780Z,69.44
2023-03-21T01:13:57.872Z,69.22
2023-03-21T01:16:31.435Z,69.69
2023-03-21T01:18:59.534Z,69.23
2023-03-21T01:21:26.300Z,68.95
2023-03-21T01:23:52.743Z,69.21
2023-03-21T01:26:19.496Z,68.92
2023-03-21T01:28:45.976Z,68.72
2023-03-21T01:31:14.639Z,68.43
2023-03-21T01:33:41.927Z,68.77
2023-03-21T01:36:14.350Z,69.45
2023-03-21T01:38:42.751Z,69.29
2023-03-21T01:41:47.270Z,69.05
2023-03-21T01:44:19.872Z,68.86
2023-03-21T01:47:09.731Z,68.90
2023-03-21T01:49:50.910Z,69.05
2023-03-21T01:52:38.088Z,68.53
2023-03-21T01:55:14.313Z,68.74
2023-03-21T01:58:05.492Z,68.99
2023-03-21T02:00:47.094Z,69.92
2023-03-21T02:03:35.669Z,69.98
2023-03-21T02:06:24.496Z,69.84
2023-03-21T02:08:55.465Z,69.47
2023-03-21T02:11:23.729Z,70.44
2023-03-21T02:13:55.853Z,70.67
2023-03-21T02:16:48.174Z,70.53
2023-03-21T02:19:31.987Z,70.26
2023-03-21T02:22:26.920Z,70.67
2023-03-21T02:25:25.206Z,70.29
2023-03-21T02:28:04.734Z,70.39
2023-03-21T02:30:53.255Z,70.45
2023-03-21T02:33:48.538Z,69.89
2023-03-21T02:36:44.799Z,70.84
2023-03-21T02:39:19.881Z,71.16
2023-03-21T02:42:04.802Z,70.96
2023-03-21T02:44:49.292Z,70.82
2023-03-21T02:47:37.434Z,70.90
2023-03-21T02:50:17.937Z,70.86
2023-03-21T02:52:48.152Z,71.38
2023-03-21T02:55:19.998Z,71.19
2023-03-21T02:57:56.501Z,71.52
2023-03-21T03:00:27.523Z,71.91
2023-03-21T03:03:08.184Z,71.68
2023-03-21T03:05:41.206Z,72.13
2023-03-21T03:09:15.702Z,72.31
2023-03-21T03:11:44.641Z,71.92
2023-03-21T03:14:38.480Z,71.71
2023-03-21T03:17:28.425Z,71.88
2023-03-21T03:20:16.624Z,71.45
2023-03-21T03:22:52.677Z,71.35
2023-03-21T03:25:36.079Z,71.18
2023-03-21T03:28:09.371Z,70.39
2023-03-21T03:30:43.374Z,70.58
2023-03-21T03:33:17.884Z,71.52
2023-03-21T03:35:53.078Z,71.10
2023-03-21T03:38:31.707Z,71.47
2023-03-21T03:41:08.013Z,70.58
2023-03-21T03:43:53.904Z,70.98
2023-03-21T03:46:33.229Z,71.50
2023-03-21T03:49:10.745Z,71.80
2023-03-21T03:51:54.801Z,71.46
2023-03-21T03:54:47.451Z,72.03
2023-03-21T03:57:16.076Z,72.23
2023-03-21T03:59:44.422Z,72.59
2023-03-21T04:02:14.737Z,72.15
2023-03-21T04:04:41.980Z,72.38
2023-03-21T04:07:09.024Z,71.87
2023-03-21T04:09:44.185Z,71.88
2023-03-21T04:12:14.080Z,71.89
2023-03-21T04:14:46.008Z,71.90
2023-03-21T04:17:18.624Z,71.43
2023-03-21T04:19:46.236Z,71.50
2023-03-21T04:22:13.447Z,71.34
2023-03-21T04:24:42.857Z,72.58
2023-03-21T04:27:09.799Z,72.40
2023-03-21T04:29:41.228Z,73.07
2023-03-21T04:32:26.097Z,73.15
2023-03-21T04:35:02.330Z,73.16
2023-03-21T04:37:29.436Z,72.65
2023-03-21T04:39:55.932Z,73.10
2023-03-21T04:42:22.678Z,73.13
2023-03-21T04:44:49.443Z,73.07
2023-03-21T04:47:16.827Z,73.81
2023-03-21T04:49:43.488Z,73.18
2023-03-21T04:52:11.384Z,73.94
2023-03-21T04:54:37.826Z,73.29
2023-03-21T04:57:04.814Z,73.74
2023-03-21T04:59:31.641Z,73.09
2023-03-21T05:01:58.528Z,73.64
2023-03-21T05:04:26.826Z,73.44
2023-03-21T05:06:54.412Z,74.15
2023-03-21T05:09:22.170Z,72.97
2023-03-21T05:11:49.123Z,72.60
2023-03-21T05:14:20.565Z,73.09
2023-03-21T05:16:53.474Z,73.24
2023-03-21T05:19:34.833Z,73.88
2023-03-21T05:22:05.378Z,73.64
2023-03-21T05:24:33.111Z,74.56
2023-03-21T05:27:02.653Z,73.71
2023-03-21T05:29:33.354Z,74.25
2023-03-21T05:32:05.634Z,75.36
2023-03-21T05:34:32.064Z,75.27
2023-03-21T05:36:59.560Z,74.64
2023-03-21T05:39:35.573Z,74.63
2023-03-21T05:42:07.745Z,74.27
2023-03-21T05:44:34.524Z,73.52
2023-03-21T05:47:06.524Z,72.76
2023-03-21T05:49:44.213Z,72.42
2023-03-21T05:52:11.198Z,73.13
2023-03-21T05:54:38.000Z,73.20
2023-03-21T05:57:05.417Z,73.45
2023-03-21T05:59:50.976Z,72.91
2023-03-21T06:02:18.857Z,73.14
2023-03-21T06:04:46.695Z,73.01
2023-03-21T06:07:13.196Z,73.29
2023-03-21T06:09:41.022Z,73.18
2023-03-21T06:12:07.795Z,73.54
2023-03-21T06:14:57.076Z,72.89
2023-03-21T06:17:30.009Z,72.87
2023-03-21T06:20:02.867Z,71.57
2023-03-21T06:22:37.849Z,72.00
2023-03-21T06:25:07.399Z,72.51
2023-03-21T06:27:34.532Z,72.16
2023-03-21T06:30:01.644Z,71.79
2023-03-21T06:32:34.279Z,71.90
2023-03-21T06:35:08.545Z,72.02
2023-03-21T06:37:35.867Z,71.61
2023-03-21T06:40:05.031Z,71.53
2023-03-21T06:42:32.493Z,71.22
2023-03-21T06:45:06.576Z,71.55
2023-03-21T06:47:33.008Z,71.67
2023-03-21T06:50:00.745Z,71.44
2023-03-21T06:52:27.335Z,71.45
2023-03-21T06:54:53.879Z,69.83
2023-03-21T06:57:21.922Z,69.78
2023-03-21T06:59:49.497Z,69.19
2023-03-21T07:02:19.910Z,68.49
2023-03-21T07:05:01.630Z,68.61
2023-03-21T07:07:29.730Z,68.00
2023-03-21T07:09:56.431Z,66.78
2023-03-21T07:12:23.969Z,67.50
2023-03-21T07:15:06.886Z,67.42
2023-03-21T07:17:33.743Z,67.31
2023-03-21T07:20:00.588Z,67.83
2023-03-21T07:22:27.133Z,67.14
2023-03-21T07:25:04.469Z,67.07
2023-03-21T07:27:40.669Z,67.66
2023-03-21T07:30:08.305Z,67.71
2023-03-21T07:32:37.875Z,67.19
2023-03-21T07:35:06.873Z,66.58
2023-03-21T07:37:33.345Z,66.01
2023-03-21T07:40:00.196Z,65.98
2023-03-21T07:42:26.603Z,65.42
2023-03-21T07:44:59.147Z,65.39
2023-03-21T07:47:26.723Z,64.36
2023-03-21T07:49:53.206Z,63.05
2023-03-21T07:52:19.726Z,62.68
2023-03-21T07:54:46.235Z,61.38
2023-03-21T07:57:13.820Z,60.26
2023-03-21T07:59:40.371Z,60.92
2023-03-21T08:02:07.258Z,61.06
2023-03-21T08:04:35.038Z,60.46
2023-03-21T08:07:01.747Z,60.96
2023-03-21T08:09:30.135Z,60.74
2023-03-21T08:11:57.495Z,60.67
2023-03-21T08:14:23.953Z,61.09
2023-03-21T08:16:50.731Z,59.78
2023-03-21T08:19:20.635Z,59.39
2023-03-21T08:21:50.990Z,59.50
2023-03-21T08:24:17.501Z,60.08
2023-03-21T08:26:45.901Z,59.85
2023-03-21T08:29:13.739Z,60.51
2023-03-21T08:31:41.291Z,60.45
2023-03-21T08:34:08.021Z,59.86
2023-03-21T08:36:36.842Z,58.99
2023-03-21T08:39:05.501Z,59.95
2023-03-21T08:41:33.707Z,59.76
2023-03-21T08:44:00.243Z,59.41
2023-03-21T08:46:27.103Z,59.21
2023-03-21T08:48:54.449Z,66.13
2023-03-21T08:51:21.184Z,68.65
2023-03-21T08:53:50.856Z,66.55
2023-03-21T08:56:18.300Z,63.14
2023-03-21T08:58:45.339Z,61.21
2023-03-21T09:01:15.454Z,60.43
2023-03-21T09:03:42.788Z,56.89
2023-03-21T09:06:10.742Z,55.41
2023-03-21T09:08:38.247Z,54.03
2023-03-21T09:11:04.874Z,55.32
2023-03-21T09:13:31.270Z,55.05
2023-03-21T09:16:01.221Z,55.15
2023-03-21T09:18:39.037Z,55.29
2023-03-21T09:21:12.682Z,53.67
2023-03-21T09:23:40.110Z,54.24
2023-03-21T09:26:11.226Z,53.32
2023-03-21T09:28:39.145Z,52.92
2023-03-21T09:31:06.530Z,52.47
2023-03-21T09:33:33.190Z,52.15
2023-03-21T09:36:00.425Z,52.46
2023-03-21T09:38:30.414Z,52.44
2023-03-21T09:41:18.288Z,52.94
2023-03-21T09:44:15.616Z,53.18
2023-03-21T09:47:02.460Z,52.78
2023-03-21T09:49:43.543Z,52.65
2023-03-21T09:52:16.859Z,52.77
2023-03-21T09:54:44.675Z,53.21
2023-03-21T09:57:38.068Z,53.87
2023-03-21T10:00:15.814Z,54.34
2023-03-21T10:02:49.511Z,53.96
2023-03-21T10:05:27.102Z,53.51
2023-03-21T10:07:59.970Z,53.06
2023-03-21T10:10:37.398Z,53.70
2023-03-21T10:13:07.445Z,53.45
2023-03-21T10:15:33.880Z,53.76
2023-03-21T10:18:07.138Z,53.35
2023-03-21T10:20:38.334Z,52.57
2023-03-21T10:23:08.060Z,53.54
2023-03-21T10:25:38.077Z,54.01
2023-03-21T10:28:07.549Z,54.25
2023-03-21T10:30:44.370Z,54.21
2023-03-21T10:33:18.264Z,54.42
2023-03-21T10:35:49.397Z,54.14
2023-03-21T10:38:19.906Z,53.99
2023-03-21T10:40:46.677Z,53.57
2023-03-21T10:43:34.261Z,53.96
2023-03-21T10:46:13.410Z,53.46
2023-03-21T10:48:46.312Z,53.23
2023-03-21T10:51:19.204Z,53.38
2023-03-21T10:53:51.683Z,52.16
2023-03-21T10:56:18.905Z,50.71
2023-03-21T10:58:47.038Z,50.14
2023-03-21T11:01:26.015Z,49.42
2023-03-21T11:03:58.028Z,49.82
2023-03-21T11:06:46.877Z,48.18
2023-03-21T11:09:20.234Z,47.02
2023-03-21T11:12:10.918Z,48.50
2023-03-21T11:14:41.695Z,48.71
2023-03-21T11:17:17.019Z,47.69
2023-03-21T11:19:56.825Z,48.19
2023-03-21T11:22:27.278Z,46.42
2023-03-21T11:24:59.274Z,46.44
2023-03-21T11:27:31.107Z,45.59
2023-03-21T11:30:01.621Z,46.31
2023-03-21T11:32:36.052Z,46.47
2023-03-21T11:35:21.092Z,46.37
2023-03-21T11:37:55.190Z,46.88
2023-03-21T11:40:23.542Z,46.01
2023-03-21T11:42:58.817Z,44.96
2023-03-21T11:45:31.069Z,45.13
2023-03-21T11:48:00.233Z,45.38
2023-03-21T11:50:27.127Z,45.22
2023-03-21T11:53:28.081Z,45.17
2023-03-21T11:56:09.900Z,45.46
2023-03-21T11:58:47.016Z,45.35
2023-03-21T12:01:27.519Z,45.08
2023-03-21T12:04:07.299Z,42.54
2023-03-21T12:06:40.558Z,42.85
2023-03-21T12:09:25.786Z,43.11
2023-03-21T12:12:29.975Z,43.53
2023-03-21T12:15:17.683Z,43.51
2023-03-21T12:17:53.236Z,43.63
2023-03-21T12:20:56.622Z,43.79
2023-03-21T12:23:23.108Z,43.85
2023-03-21T12:26:29.368Z,43.96
2023-03-21T12:29:23.283Z,45.34
2023-03-21T12:32:08.100Z,46.17
2023-03-21T12:35:03.820Z,48.02
2023-03-21T12:37:45.209Z,48.32
2023-03-21T12:40:36.223Z,48.06
2023-03-21T12:43:24.351Z,50.37
2023-03-21T12:45:57.855Z,50.70
2023-03-21T12:48:28.292Z,52.15
2023-03-21T12:50:58.421Z,53.40
2023-03-21T12:53:53.115Z,52.60
2023-03-21T12:56:25.382Z,52.47
2023-03-21T12:58:57.844Z,53.03
2023-03-21T13:01:25.631Z,54.03
2023-03-21T13:04:07.101Z,55.87
2023-03-21T13:06:36.566Z,58.20
2023-03-21T13:09:13.267Z,59.32
2023-03-21T13:11:40.356Z,61.30
2023-03-21T13:14:29.946Z,61.74
2023-03-21T13:17:10.755Z,63.08
2023-03-21T13:19:47.303Z,63.33
2023-03-21T13:22:26.397Z,65.09
2023-03-21T13:25:19.386Z,66.37
2023-03-21T13:27:52.977Z,68.13
2023-03-21T13:30:22.871Z,68.70
2023-03-21T13:32:51.436Z,70.07
2023-03-21T13:35:38.341Z,70.58
2023-03-21T13:38:12.740Z,69.78
2023-03-21T13:40:49.187Z,69.96
2023-03-21T13:43:38.878Z,70.76
2023-03-21T13:46:07.381Z,71.56
2023-03-21T13:49:05.474Z,71.21
2023-03-21T13:51:31.855Z,70.85
2023-03-21T13:54:29.916Z,70.79
2023-03-21T13:57:01.240Z,70.69
2023-03-21T13:59:39.158Z,70.16
2023-03-21T14:02:28.775Z,70.18
2023-03-21T14:05:07.051Z,70.69
2023-03-21T14:07:47.428Z,71.09
2023-03-21T14:10:30.689Z,73.09
2023-03-21T14:12:57.395Z,73.80
2023-03-21T14:15:46.403Z,73.29
2023-03-21T14:18:28.038Z,75.38
2023-03-21T14:21:09.225Z,75.69
2023-03-21T14:23:38.612Z,76.13
2023-03-21T14:26:06.213Z,75.52
2023-03-21T14:28:33.561Z,76.04
2023-03-21T14:31:01.064Z,75.62
2023-03-21T14:33:32.794Z,75.52
2023-03-21T14:36:04.129Z,74.52
2023-03-21T14:38:37.164Z,75.47
2023-03-21T14:41:04.416Z,74.97
2023-03-21T14:43:33.987Z,75.92
2023-03-21T14:46:01.143Z,75.66
2023-03-21T14:48:34.811Z,76.06
2023-03-21T14:51:09.139Z,76.81
2023-03-21T14:53:41.006Z,74.85
2023-03-21T14:56:17.025Z,74.17
2023-03-21T14:58:46.235Z,72.16
2023-03-21T15:01:17.375Z,72.07
2023-03-21T15:03:46.199Z,72.48
2023-03-21T15:06:14.467Z,72.55
2023-03-21T15:08:54.884Z,71.68
2023-03-21T15:11:36.580Z,72.92
2023-03-21T15:14:06.821Z,71.82
2023-03-21T15:16:34.460Z,71.76
2023-03-21T15:19:02.196Z,71.58
2023-03-21T15:21:42.187Z,71.70
2023-03-21T15:24:20.929Z,71.93
2023-03-21T15:26:49.606Z,72.17
2023-03-21T15:29:17.650Z,71.90
2023-03-21T15:31:46.717Z,70.76
2023-03-21T15:34:42.577Z,70.55
2023-03-21T15:37:16.938Z,70.20
2023-03-21T15:39:43.649Z,69.97
2023-03-21T15:42:34.096Z,69.67
2023-03-21T15:45:02.578Z,68.89
2023-03-21T15:47:58.837Z,69.68
2023-03-21T15:50:29.547Z,69.65
2023-03-21T15:53:00.656Z,70.08
2023-03-21T15:55:42.598Z,70.76
2023-03-21T15:58:16.167Z,73.23
2023-03-21T16:00:57.428Z,73.80
2023-03-21T16:03:30.400Z,73.79
2023-03-21T16:06:04.281Z,73.43
2023-03-21T16:09:09.263Z,73.28
2023-03-21T16:11:47.763Z,73.32
2023-03-21T16:14:14.192Z,73.70
2023-03-21T16:16:40.820Z,74.20
2023-03-21T16:19:07.485Z,74.88
2023-03-21T16:21:35.249Z,75.17
2023-03-21T16:24:02.143Z,75.40
2023-03-21T16:26:35.750Z,75.50
2023-03-21T16:29:03.281Z,75.64
2023-03-21T16:31:33.027Z,74.85
2023-03-21T16:33:59.559Z,74.90
2023-03-21T16:36:29.473Z,75.15
2023-03-21T16:38:56.473Z,75.28
2023-03-21T16:41:25.395Z,74.86
2023-03-21T16:43:52.241Z,75.01
2023-03-21T16:46:24.729Z,74.92
2023-03-21T16:48:54.435Z,75.03
2023-03-21T16:51:33.297Z,74.61
2023-03-21T16:54:00.503Z,74.05
2023-03-21T16:56:31.058Z,74.52
2023-03-21T16:58:57.922Z,74.60
2023-03-21T17:01:29.959Z,74.91
2023-03-21T17:03:57.826Z,74.38
2023-03-21T17:06:27.598Z,74.66
2023-03-21T17:08:55.655Z,74.86
2023-03-21T17:11:23.831Z,74.68
2023-03-21T17:13:52.416Z,74.84
2023-03-21T17:16:25.459Z,74.93
2023-03-21T17:18:53.110Z,74.89
2023-03-21T17:21:21.903Z,75.20
2023-03-21T17:23:50.132Z,75.68
2023-03-21T17:26:21.070Z,76.20
2023-03-21T17:28:47.842Z,76.28
2023-03-21T17:31:16.742Z,76.32
2023-03-21T17:33:43.832Z,76.65
2023-03-21T17:36:24.623Z,76.75
2023-03-21T17:38:52.742Z,76.54
2023-03-21T17:41:20.497Z,76.90
2023-03-21T17:43:47.143Z,76.50
2023-03-21T17:46:16.561Z,76.46
2023-03-21T17:48:44.929Z,77.54
2023-03-21T17:51:14.752Z,77.38
2023-03-21T17:53:45.120Z,77.17
2023-03-21T17:56:17.619Z,77.62
2023-03-21T17:58:44.358Z,77.52
2023-03-21T18:01:10.910Z,77.36
2023-03-21T18:03:37.339Z,77.36
2023-03-21T18:06:04.583Z,77.12
2023-03-21T18:08:31.259Z,77.58
2023-03-21T18:10:58.080Z,77.74
2023-03-21T18:13:25.361Z,77.36
2023-03-21T18:15:52.883Z,76.55
2023-03-21T18:18:19.495Z,76.47
2023-03-21T18:20:52.153Z,77.17
2023-03-21T18:23:19.433Z,78.38
2023-03-21T18:25:46.215Z,78.42
2023-03-21T18:28:13.236Z,80.00
2023-03-21T18:31:05.196Z,80.00
2023-03-21T18:33:27.701Z,80.11
2023-03-21T18:35:58.944Z,79.51
2023-03-21T18:38:27.418Z,79.30
2023-03-21T18:40:54.527Z,79.90
2023-03-21T18:46:08.270Z,79.69
2023-03-21T18:48:35.668Z,79.95
2023-03-21T18:51:02.902Z,80.63
2023-03-21T18:53:29.825Z,80.64
2023-03-21T18:55:57.475Z,80.14
2023-03-21T18:58:24.744Z,80.30
2023-03-21T19:00:53.390Z,80.17
2023-03-21T19:03:34.272Z,79.44
2023-03-21T19:06:03.739Z,79.04
2023-03-21T19:08:30.772Z,79.43
2023-03-21T19:11:00.177Z,80.86
2023-03-21T19:13:28.174Z,80.37
2023-03-21T19:15:54.558Z,80.31
2023-03-21T19:21:08.150Z,79.83
2023-03-21T19:23:59.273Z,80.05
2023-03-21T19:26:22.069Z,80.11
2023-03-21T19:28:48.505Z,80.30
2023-03-21T19:31:14.964Z,80.65
2023-03-21T19:33:41.471Z,80.78
2023-03-21T19:36:17.995Z,80.83
2023-03-21T19:38:44.844Z,81.04
2023-03-21T19:41:11.308Z,81.00
2023-03-21T19:43:40.012Z,80.83
2023-03-21T19:46:06.893Z,80.92
2023-03-21T19:48:33.699Z,80.81
2023-03-21T19:51:36.411Z,81.98
2023-03-21T19:53:49.262Z,87.87
2023-03-21T19:56:22.466Z,81.67
2023-03-21T19:58:50.575Z,78.37
2023-03-21T20:01:17.144Z,77.72
2023-03-21T20:03:44.413Z,78.11
2023-03-21T20:06:11.630Z,79.60
2023-03-21T20:09:05.277Z,79.59
2023-03-21T20:11:24.543Z,79.28
2023-03-21T20:13:51.171Z,80.02
2023-03-21T20:16:18.401Z,80.72
2023-03-21T20:18:46.065Z,80.11
2023-03-21T20:21:17.737Z,81.81
2023-03-21T20:23:49.212Z,83.20
2023-03-21T20:26:16.763Z,83.62
2023-03-21T20:28:56.107Z,84.24
2023-03-21T20:31:26.229Z,84.40
2023-03-21T20:33:53.145Z,83.65
2023-03-21T20:39:08.705Z,83.73
2023-03-21T20:41:35.186Z,84.51
2023-03-21T20:46:48.313Z,86.12
2023-03-21T20:49:15.484Z,86.19
2023-03-21T20:54:30.048Z,84.63
2023-03-21T20:56:57.172Z,82.95
2023-03-21T20:59:27.605Z,82.26
2023-03-21T21:01:57.847Z,80.93
2023-03-21T21:04:44.259Z,80.03
2023-03-21T21:07:15.823Z,81.69
2023-03-21T21:09:43.825Z,82.29
2023-03-21T21:12:10.970Z,82.92
2023-03-21T21:14:38.271Z,83.73
2023-03-21T21:17:40.657Z,83.90
2023-03-21T21:19:56.378Z,85.09
2023-03-21T21:22:22.942Z,85.23
2023-03-21T21:24:49.375Z,84.63
2023-03-21T21:27:15.925Z,82.98
2023-03-21T21:29:43.248Z,82.14
2023-03-21T21:32:11.085Z,81.26
2023-03-21T21:34:37.576Z,80.88
2023-03-21T21:37:04.178Z,80.38
2023-03-21T21:39:35.103Z,81.46
2023-03-21T21:42:02.206Z,80.68
2023-03-21T21:44:28.684Z,80.67
2023-03-21T21:46:55.255Z,82.07
2023-03-21T21:49:21.736Z,80.75
2023-03-21T21:51:48.188Z,81.45
2023-03-21T21:54:18.060Z,80.52
2023-03-21T21:56:48.291Z,80.20
2023-03-21T21:59:18.518Z,80.87
2023-03-21T22:01:46.510Z,81.36
2023-03-21T22:04:14.453Z,82.05
2023-03-21T22:06:42.200Z,82.22
2023-03-21T22:09:09.448Z,82.99
2023-03-21T22:11:36.295Z,82.78
2023-03-21T22:14:03.550Z,82.46
2023-03-21T22:16:30.190Z,82.33
2023-03-21T22:18:56.811Z,81.77
2023-03-21T22:21:23.404Z,82.61
2023-03-21T22:23:49.894Z,84.05
2023-03-21T22:26:16.589Z,83.88
2023-03-21T22:28:43.575Z,84.53
2023-03-21T22:31:18.725Z,84.41
2023-03-21T22:33:45.700Z,84.66
2023-03-21T22:36:12.470Z,84.89
2023-03-21T22:38:38.993Z,84.16
2023-03-21T22:41:06.604Z,83.19
2023-03-21T22:43:34.228Z,82.35
2023-03-21T22:46:02.796Z,82.15
2023-03-21T22:48:32.826Z,80.73
2023-03-21T22:51:00.513Z,80.84
2023-03-21T22:53:26.969Z,80.35
2023-03-21T22:55:53.792Z,80.93
2023-03-21T22:58:20.689Z,80.70
2023-03-21T23:00:47.444Z,80.97
2023-03-21T23:03:16.531Z,81.03
2023-03-21T23:05:44.198Z,80.86
2023-03-21T23:08:11.514Z,81.24
2023-03-21T23:10:41.388Z,80.94
2023-03-21T23:13:08.040Z,80.05
2023-03-21T23:15:34.453Z,80.02
2023-03-21T23:18:01.063Z,79.74
2023-03-21T23:20:27.809Z,79.26
2023-03-21T23:22:54.279Z,79.22
2023-03-21T23:25:20.941Z,79.11
2023-03-21T23:27:48.000Z,79.33
2023-03-21T23:30:14.544Z,79.34
2023-03-21T23:32:41.423Z,79.28
2023-03-21T23:35:08.385Z,79.01
2023-03-21T23:37:34.928Z,79.41
2023-03-21T23:40:01.514Z,79.18
2023-03-21T23:42:29.071Z,79.01
2023-03-21T23:44:55.635Z,79.01
2023-03-21T23:47:22.110Z,78.31
2023-03-21T23:49:49.992Z,78.19
2023-03-21T23:52:16.421Z,77.73
2023-03-21T23:54:43.081Z,77.25
2023-03-21T23:57:10.324Z,76.80
2023-03-21T23:59:36.827Z,77.27
